createdAt,value
2022-07-30T00:00:58.478Z,22.14
2022-07-30T00:05:59.881Z,22.15
2022-07-30T00:11:01.589Z,22.16
2022-07-30T00:16:03.222Z,21.84
2022-07-30T00:21:04.608Z,21.83
2022-07-30T00:26:05.989Z,21.91
2022-07-30T00:31:08.740Z,21.92
2022-07-30T00:36:10.149Z,21.88
2022-07-30T00:41:12.883Z,21.81
2022-07-30T00:46:17.129Z,21.78
2022-07-30T00:51:18.562Z,21.67
2022-07-30T00:56:19.915Z,21.59
2022-07-30T01:01:21.355Z,21.51
2022-07-30T01:06:22.844Z,21.45
2022-07-30T01:11:31.812Z,21.39
2022-07-30T01:16:34.655Z,21.34
2022-07-30T01:21:43.850Z,21.31
2022-07-30T01:26:45.649Z,21.25
2022-07-30T01:31:49.282Z,21.17
2022-07-30T01:36:50.773Z,21.13
2022-07-30T01:41:54.344Z,21.11
2022-07-30T01:46:56.671Z,21.05
2022-07-30T01:52:00.145Z,21.04
2022-07-30T01:57:02.757Z,21.10
2022-07-30T02:02:04.601Z,21.15
2022-07-30T02:07:14.364Z,21.11
2022-07-30T02:12:29.807Z,20.97
2022-07-30T02:17:39.505Z,20.89
2022-07-30T02:22:46.243Z,20.81
2022-07-30T02:27:58.147Z,20.72
2022-07-30T02:33:04.808Z,20.47
2022-07-30T02:38:07.867Z,20.55
2022-07-30T02:43:09.996Z,20.56
2022-07-30T02:48:34.248Z,20.41
2022-07-30T02:53:36.592Z,20.21
2022-07-30T02:58:40.320Z,20.28
2022-07-30T03:03:45.128Z,20.22
2022-07-30T03:08:46.897Z,20.23
2022-07-30T03:13:48.441Z,20.16
2022-07-30T03:18:49.885Z,20.25
2022-07-30T03:23:54.798Z,20.19
2022-07-30T03:28:57.043Z,20.14
2022-07-30T03:33:58.920Z,20.11
2022-07-30T03:39:01.305Z,20.13
2022-07-30T03:44:03.390Z,20.09
2022-07-30T03:49:05.974Z,20.05
2022-07-30T03:54:13.284Z,19.89
2022-07-30T03:59:15.601Z,19.82
2022-07-30T04:04:16.998Z,19.77
2022-07-30T04:09:18.338Z,19.81
2022-07-30T04:14:19.724Z,19.74
2022-07-30T04:19:35.457Z,19.63
2022-07-30T04:24:40.062Z,19.62
2022-07-30T04:29:41.729Z,19.54
2022-07-30T04:34:54.161Z,19.71
2022-07-30T04:39:57.623Z,19.75
2022-07-30T04:44:58.977Z,19.87
2022-07-30T04:50:00.953Z,19.88
2022-07-30T04:55:05.471Z,19.89
2022-07-30T05:00:09.160Z,19.85
2022-07-30T05:05:16.101Z,19.74
2022-07-30T05:10:18.132Z,19.78
2022-07-30T05:15:19.917Z,19.97
2022-07-30T05:20:21.492Z,19.94
2022-07-30T05:25:23.434Z,19.95
2022-07-30T05:30:27.547Z,20.07
2022-07-30T05:35:29.231Z,20.22
2022-07-30T05:40:30.641Z,20.32
2022-07-30T05:45:32.407Z,20.49
2022-07-30T05:50:34.067Z,20.54
2022-07-30T05:55:36.381Z,20.53
2022-07-30T06:00:38.018Z,20.55
2022-07-30T06:05:39.417Z,20.60
2022-07-30T06:10:40.781Z,20.71
2022-07-30T06:15:42.242Z,20.73
2022-07-30T06:20:43.701Z,20.76
2022-07-30T06:25:45.076Z,20.91
2022-07-30T06:30:48.090Z,20.97
2022-07-30T06:35:49.617Z,21.10
2022-07-30T06:40:51.089Z,21.29
2022-07-30T06:45:52.571Z,21.51
2022-07-30T06:50:54.075Z,21.63
2022-07-30T06:56:00.231Z,21.81
2022-07-30T07:01:02.160Z,21.90
2022-07-30T07:06:05.194Z,21.90
2022-07-30T07:11:06.634Z,21.99
2022-07-30T07:16:08.111Z,22.16
2022-07-30T07:21:09.606Z,22.21
2022-07-30T07:26:12.195Z,22.29
2022-07-30T07:32:07.381Z,22.63
2022-07-30T07:36:36.196Z,22.61
2022-07-30T07:41:49.317Z,22.79
2022-07-30T07:46:50.830Z,23.03
2022-07-30T07:51:52.286Z,23.30
2022-07-30T07:56:56.003Z,23.60
2022-07-30T08:01:58.283Z,23.88
2022-07-30T08:07:05.354Z,23.98
2022-07-30T08:12:08.043Z,24.33
2022-07-30T08:17:09.623Z,24.77
2022-07-30T08:22:11.308Z,24.79
2022-07-30T08:27:12.684Z,25.08
2022-07-30T08:32:14.093Z,25.35
2022-07-30T08:37:15.923Z,25.65
2022-07-30T08:42:17.464Z,25.06
2022-07-30T08:47:23.584Z,24.69
2022-07-30T08:52:25.142Z,24.52
2022-07-30T08:57:29.879Z,24.45
2022-07-30T09:02:32.086Z,24.33
2022-07-30T09:07:34.143Z,24.62
2022-07-30T09:12:42.581Z,24.77
2022-07-30T09:17:54.562Z,24.63
2022-07-30T09:22:58.930Z,24.61
2022-07-30T09:28:00.947Z,24.73
2022-07-30T09:33:03.407Z,24.94
2022-07-30T09:38:06.772Z,25.09
2022-07-30T09:43:10.910Z,25.21
2022-07-30T09:48:23.166Z,25.51
2022-07-30T09:53:24.735Z,25.64
2022-07-30T09:58:45.469Z,25.85
2022-07-30T10:03:48.520Z,26.40
2022-07-30T10:08:51.373Z,26.37
2022-07-30T10:13:54.933Z,26.59
2022-07-30T10:19:00.574Z,27.30
2022-07-30T10:24:02.277Z,28.10
2022-07-30T10:29:04.971Z,28.63
2022-07-30T10:34:07.600Z,28.33
2022-07-30T10:39:12.603Z,28.96
2022-07-30T10:44:59.489Z,28.72
2022-07-30T10:50:22.691Z,27.55
2022-07-30T10:55:37.106Z,27.84
2022-07-30T11:05:47.793Z,29.47
2022-07-30T11:10:49.174Z,29.37
2022-07-30T11:15:59.830Z,29.53
2022-07-30T11:21:14.191Z,29.70
2022-07-30T11:26:47.757Z,29.60
2022-07-30T11:31:58.677Z,29.82
2022-07-30T11:37:18.533Z,29.54
2022-07-30T11:42:38.427Z,30.63
2022-07-30T11:47:40.115Z,30.81
2022-07-30T11:52:41.489Z,30.43
2022-07-30T11:57:44.983Z,29.67
2022-07-30T12:07:59.030Z,30.38
2022-07-30T12:13:14.861Z,30.51
2022-07-30T12:18:30.038Z,30.65
2022-07-30T12:23:32.151Z,30.67
2022-07-30T12:28:35.570Z,30.46
2022-07-30T12:33:41.888Z,30.41
2022-07-30T12:38:47.865Z,30.61
2022-07-30T12:43:49.516Z,30.66
2022-07-30T12:49:02.810Z,30.75
2022-07-30T12:54:22.458Z,30.43
2022-07-30T12:59:24.194Z,30.30
2022-07-30T13:04:26.814Z,30.30
2022-07-30T13:09:28.250Z,29.77
2022-07-30T13:14:29.808Z,29.61
2022-07-30T13:19:31.314Z,29.87
2022-07-30T13:24:34.005Z,29.66
2022-07-30T13:29:35.378Z,29.41
2022-07-30T13:34:49.541Z,29.89
2022-07-30T13:39:51.294Z,29.75
2022-07-30T13:44:52.666Z,29.62
2022-07-30T13:49:54.094Z,29.86
2022-07-30T13:54:55.492Z,29.81
2022-07-30T13:59:57.142Z,29.99
2022-07-30T14:04:58.662Z,30.00
2022-07-30T14:10:00.063Z,29.62
2022-07-30T14:15:01.684Z,29.06
2022-07-30T14:20:04.119Z,28.99
2022-07-30T14:25:06.110Z,29.21
2022-07-30T14:30:09.484Z,29.11
2022-07-30T14:35:11.217Z,28.66
2022-07-30T14:40:13.100Z,28.69
2022-07-30T14:45:14.527Z,28.74
2022-07-30T14:50:16.017Z,28.86
2022-07-30T14:55:17.516Z,28.94
2022-07-30T15:00:19.313Z,28.82
2022-07-30T15:05:22.816Z,28.79
2022-07-30T15:10:24.581Z,28.86
2022-07-30T15:15:26.789Z,28.76
2022-07-30T15:20:32.385Z,28.44
2022-07-30T15:25:33.784Z,28.34
2022-07-30T15:30:36.893Z,28.29
2022-07-30T15:35:38.260Z,28.24
2022-07-30T15:40:40.434Z,28.24
2022-07-30T15:45:55.285Z,28.19
2022-07-30T15:51:02.582Z,28.17
2022-07-30T15:56:04.476Z,28.14
2022-07-30T16:01:05.973Z,28.18
2022-07-30T16:06:07.343Z,28.28
2022-07-30T16:11:11.035Z,28.29
2022-07-30T16:16:12.550Z,28.06
2022-07-30T16:21:14.034Z,27.76
2022-07-30T16:26:15.454Z,27.72
2022-07-30T16:31:16.897Z,27.63
2022-07-30T16:36:18.268Z,27.54
2022-07-30T16:41:19.645Z,27.53
2022-07-30T16:46:34.331Z,27.39
2022-07-30T16:51:37.169Z,27.31
2022-07-30T16:56:38.656Z,27.27
2022-07-30T17:01:40.077Z,27.31
2022-07-30T17:06:43.906Z,27.29
2022-07-30T17:11:47.224Z,27.16
2022-07-30T17:16:53.440Z,27.12
2022-07-30T17:21:54.840Z,27.17
2022-07-30T17:26:56.647Z,27.12
2022-07-30T17:31:58.102Z,26.98
2022-07-30T17:36:59.488Z,26.93
2022-07-30T17:42:06.776Z,26.89
2022-07-30T17:47:14.540Z,26.80
2022-07-30T17:52:17.796Z,26.63
2022-07-30T17:57:20.229Z,26.50
2022-07-30T18:02:27.463Z,26.41
2022-07-30T18:07:30.491Z,26.31
2022-07-30T18:12:31.827Z,26.20
2022-07-30T18:17:34.022Z,26.06
2022-07-30T18:22:35.493Z,25.95
2022-07-30T18:27:37.956Z,25.87
2022-07-30T18:32:39.321Z,25.81
2022-07-30T18:37:41.975Z,25.72
2022-07-30T18:42:43.709Z,25.60
2022-07-30T18:47:46.510Z,25.48
2022-07-30T18:52:48.048Z,25.38
2022-07-30T18:57:52.053Z,25.25
2022-07-30T19:02:53.883Z,25.10
2022-07-30T19:07:57.069Z,24.98
2022-07-30T19:13:00.115Z,24.91
2022-07-30T19:18:01.707Z,24.80
2022-07-30T19:23:05.335Z,24.70
2022-07-30T19:28:07.008Z,24.72
2022-07-30T19:33:15.116Z,24.69
2022-07-30T19:38:23.740Z,24.65
2022-07-30T19:43:25.583Z,24.58
2022-07-30T19:48:31.796Z,24.50
2022-07-30T19:53:34.664Z,24.39
2022-07-30T19:58:36.625Z,24.36
2022-07-30T20:03:38.829Z,24.33
2022-07-30T20:08:40.387Z,24.26
2022-07-30T20:13:45.035Z,24.15
2022-07-30T20:18:47.736Z,24.16
2022-07-30T20:23:52.558Z,24.25
2022-07-30T20:28:54.076Z,24.28
2022-07-30T20:33:56.864Z,24.33
2022-07-30T20:38:58.505Z,24.32
2022-07-30T20:44:02.439Z,24.30
2022-07-30T20:49:04.813Z,24.22
2022-07-30T20:54:08.341Z,24.20
2022-07-30T20:59:09.741Z,24.14
2022-07-30T21:04:11.156Z,24.10
2022-07-30T21:09:29.172Z,24.14
2022-07-30T21:15:23.497Z,24.06
2022-07-30T21:20:27.691Z,24.03
2022-07-30T21:25:32.490Z,24.00
2022-07-30T21:30:34.626Z,23.96
2022-07-30T21:35:36.573Z,23.87
2022-07-30T21:40:42.898Z,23.76
2022-07-30T21:45:45.428Z,23.68
2022-07-30T21:50:56.778Z,23.64
2022-07-30T21:55:58.188Z,23.57
2022-07-30T22:01:04.117Z,23.55
2022-07-30T22:06:19.786Z,23.56
2022-07-30T22:11:21.245Z,23.56
2022-07-30T22:16:22.710Z,23.48
2022-07-30T22:21:24.673Z,23.52
2022-07-30T22:26:26.607Z,23.49
2022-07-30T22:31:39.366Z,23.44
2022-07-30T22:36:45.508Z,23.33
2022-07-30T22:41:47.164Z,23.29
2022-07-30T22:46:48.788Z,23.28
2022-07-30T22:52:02.853Z,23.30
2022-07-30T22:57:05.497Z,23.32
2022-07-30T23:02:06.938Z,23.18
2022-07-30T23:07:14.051Z,22.99
2022-07-30T23:12:20.644Z,22.91
2022-07-30T23:17:22.074Z,22.91
2022-07-30T23:22:23.444Z,22.93
2022-07-30T23:27:24.840Z,22.90
2022-07-30T23:32:26.282Z,22.90
2022-07-30T23:37:27.873Z,22.92
2022-07-30T23:42:29.278Z,22.98
2022-07-30T23:48:00.501Z,22.97
2022-07-30T23:52:52.011Z,22.92
2022-07-30T23:57:53.439Z,22.88
